49TX weather

Valley Baptist Medical Center Heliport
Harlingen, Texas, United States

Public forecast

Using degrees Fahrenheit for public forecast. Weather courtesy of forecast.io.

Closest aviation weather report (METAR) to Valley Baptist Medical Center Heliport

Closest report is Valley International Airport, 3.6 nm (6.7 km) N. Retrieved 2019/10/13 21:52 UTC (17 minutes ago):

KHRL 132152Z 36007KT 10SM SCT021 29/21 A2989 RMK AO2 SLP121 T02940206

Closest aviation forecast (TAF) to Valley Baptist Medical Center Heliport

Closest forecast is Valley International Airport, 3.6 nm (6.7 km) N. Retrieved 2019/10/13 18:40 UTC (3 hours ago):

TAF KHRL 131738Z 1318/1418 34009KT P6SM FEW035 TEMPO 1318/1319 BKN022 FM140000 VRB03KT P6SM SCT250 TEMPO 1400/1402 BKN035 FM141500 VRB05KT P6SM SCT035